Galveston, TX

12:14 PM CDT on August 29, 2014 (GMT -0500)
Scholes International At Galveston | Change Station
CLOSE
Current Station
Airport
Location: Galveston,
Elevation: 3 ft
Nearby Weather Stations

Elev 3 ft 29.27 °N, 94.86 °W | Updated 22 minutes ago

Mostly Cloudy
Mostly Cloudy
85 °F
Feels Like 94 °F
N
14
Wind Variable Wind from ESE

Today
High -- | Low -- °F
--% Chance of Precip.
Yesterday
High -- | Low -- °F
Precip. -- in
6:55 AM 7:44 PM
Waxing Crescent, 15% visible
Pressure 29.91 in
Visibility 10.0 miles
Clouds Few 2100 ft
Mostly Cloudy 3800 ft
Heat Index 94 °F
Dew Point 76 °F
Humidity 74%
Rainfall 0.01 in
Snow Depth Not available.
UV 5 out of 12
Pollen 6.10 out of 12
Ozone Good
PM2.5 Good
Flu Activity Not available.
METAR KGLS 291652Z 11012KT 10SM FEW021 BKN038 29/24 A2990 RMK AO2 SLP126 T02940244

More Conditions Fewer Conditions

Pressure 29.91 in
Visibility 10.0 miles
Clouds Few 2100 ft
Mostly Cloudy 3800 ft
Heat Index 94 °F
Dew Point 76 °F
Humidity 74%
Rainfall 0.01 in
Snow Depth Not available.
UV 5 out of 12
Pollen 6.10 out of 12
Ozone Good
PM2.5 Good
Flu Activity Not available.
METAR KGLS 291652Z 11012KT 10SM FEW021 BKN038 29/24 A2990 RMK AO2 SLP126 T02940244

More Conditions Fewer Conditions

10-Day Weather Forecast

Almanac

Astronomy

Aug. 29, 2014 Rise Set
Actual Time 6:55 AM CDT 7:44 PM CDT
Civil Twilight 6:30 AM CDT 8:08 PM CDT
Nautical Twilight 6:02 AM CDT 8:37 PM CDT
Astronomical Twilight 5:32 AM CDT 9:06 PM CDT
Moon 10:24 AM CDT 10:04 PM CDT
Length of Visible Light 13h 37m
Length of Day
12h 49m
Tomorrow will be 1m 40s shorter.
Waxing Crescent, 15% of the Moon is Illuminated
Today
Waxing Crescent
Sep 2
First Quarter
Sep 8
Full
Sep 15
Last Quarter
Sep 24
New

Today's Extremes

State Highs State Lows

Community

WunderPhotos

Upload Photos

1,748,298 photos uploaded!

Nearby

Air Quality

  Air Quality AQ Index Pollutant
Yesterday Good
OZONE
Yesterday Good
PM2.5
Current Good
PM2.5
Current Good
OZONE
Friday Good
OZONE
Friday Good
PM10
Saturday Good
OZONE
Saturday Good
PM10
Sunday Good
OZONE
Sunday Good
PM10
Monday Good
OZONE
Monday Good
PM10
Tuesday Good
OZONE
Tuesday Good
PM10

Snow Depth

Station Depth Elevation
No new snow has been reported.

Earthquake Activity

City Distance Mag. Time & Date
No recent earthquake activity has been reported nearby.
Minimum magnitude displayed is 2.5.

Coastal Water Temperatures

Place Temperature
Galveston Bay (North Jetty), TX 82.9 °F
USCG Freeport, TX 84.0 °F
Galveston Pier TX 84.9 °F
Eagle Point, TX 84.0 °F
Rollover Pass, TX 81.0 °F

Nearby Weather Stations